Flight Track Log - Related Links

Times and Time Zones

All times are in EDT time to prevent confusion due to time zone crossing. See the UCA3597 flight status page for this flight to view local times or setup timezone preferences in your user account.

Time Position Orientation Groundspeed Altitude Reporting Facility
EDT Latitude Longitude Course Direction KTS MPH feet Rate Location/Type
Mon 07:20:48 PM 42.2342 -76.0194 217° Southwest 255 293 3,300  Level New Center
Mon 07:21:48 PM 42.1989 -76.0642 223° Southwest 194 223 4,800 1,300 Climbing New Center
Mon 07:22:48 PM 42.1472 -76.1019 208° Southwest 208 239 5,900 1,200 Climbing New Center
Mon 07:23:48 PM 42.0975 -76.1453 213° Southwest 220 253 7,200 1,450 Climbing New Center
Mon 07:24:48 PM 42.0411 -76.1939 213° Southwest 220 253 8,800 1,400 Climbing New Center
Mon 07:25:00 PM 41.9012 -76.1258 209° Southwest  Level Estimated
Mon 07:25:48 PM 41.9872 -76.2314 207° Southwest 220 253 10,000  Level New Center
Mon 07:26:00 PM 41.8397 -76.1549 217° Southwest  Level Estimated
Mon 07:26:48 PM 41.9297 -76.2600 200° South 215 247 11,200  Level New Center
Mon 07:27:48 PM 41.8806 -76.2894 204° Southwest 222 255 12,300 1,100 Climbing New Center
Mon 07:28:48 PM 41.8208 -76.3206 201° Southwest 222 255 13,400 1,200 Climbing New Center
Mon 07:29:48 PM 41.7567 -76.3569 203° Southwest 227 261 14,700 800 Climbing New Center
Mon 07:30:48 PM 41.6944 -76.3936 204° Southwest 233 268 15,000 100 Climbing New Center
Mon 07:31:48 PM 41.6303 -76.4269 201° Southwest 258 297 14,900 -50 Descending New Center
Mon 07:32:48 PM 41.5597 -76.4653 202° Southwest 274 315 14,900 50 Level New Center
Mon 07:33:48 PM 41.4828 -76.5086 203° Southwest 280 322 15,000  Climbing New Center
Mon 07:34:48 PM 41.4122 -76.5469 202° Southwest 280 322 14,900 -50 Descending New Center
Mon 07:35:48 PM 41.3417 -76.5850 202° Southwest 280 322 14,900  Level New Center
Mon 07:36:48 PM 41.2794 -76.6183 202° Southwest 280 322 14,900  Level New Center
Mon 07:37:48 PM 41.2025 -76.6586 201° Southwest 280 322 14,900  Level New Center
Mon 07:38:48 PM 41.1317 -76.6992 203° Southwest 280 322 14,900  Level New Center
Mon 07:39:48 PM 41.0608 -76.7400 203° Southwest 280 322 14,900 500 Level New Center
Mon 07:40:48 PM 40.9967 -76.7756 203° Southwest 275 316 15,900 550 Climbing New Center
Mon 07:41:48 PM 40.9344 -76.8086 202° Southwest 257 296 16,000  Climbing New Center
Mon 07:42:48 PM 40.8658 -76.8464 203° Southwest 257 296 15,900  Descending New Center
Mon 07:43:48 PM 40.7975 -76.8814 201° Southwest 265 305 16,000  Climbing New Center
Mon 07:44:48 PM 40.7275 -76.9053 195° South 265 305 15,900  Descending New Center
Mon 07:45:48 PM 40.6553 -76.9289 194° South 265 305 16,000 50 Climbing New Center
Mon 07:46:48 PM 40.5831 -76.9525 194° South 270 311 16,000  Level New Center
Mon 07:47:48 PM 40.5069 -76.9731 192° South 276 318 16,000  Level New Center
Mon 07:48:48 PM 40.4372 -76.9939 193° South 276 318 16,000 -500 Level New Center
Mon 07:49:48 PM 40.3628 -77.0200 195° South 276 318 15,000 -900 Descending New Center
Mon 07:50:48 PM 40.2994 -77.0386 193° South 276 318 14,200 -900 Descending New Center
Mon 07:51:48 PM 40.2208 -77.0644 194° South 271 312 13,200 -874 Descending New Center
Mon 07:54:07 PM 40.0667 -77.1000 190° South 258 297 11,300 -844 Descending Potomac TRACON
Mon 07:55:07 PM 40.0000 -77.1333 201° Southwest 257 296 10,400 -900 Descending Potomac TRACON
Mon 07:56:07 PM 39.9333 -77.1500 191° South 258 297 9,500 -789 Descending Potomac TRACON
Mon 07:57:01 PM 39.8500 -77.1667 189° South 257 296 8,900 -632 Descending Potomac TRACON
Mon 07:58:01 PM 39.7833 -77.2000 201° Southwest 251 289 8,300 -496 Descending Potomac TRACON
Mon 07:59:02 PM 39.7333 -77.2333 207° Southwest 248 285 7,900 -522 Descending Potomac TRACON
Mon 07:59:56 PM 39.6667 -77.2833 210° Southwest 251 289 7,300 -450 Descending Potomac TRACON
Mon 08:01:02 PM 39.6000 -77.3333 210° Southwest 255 293 7,000 -476 Descending Potomac TRACON
Mon 08:02:02 PM 39.5333 -77.3667 201° Southwest 273 314 6,300 -750 Descending Potomac TRACON
Mon 08:03:02 PM 39.4667 -77.3833 191° South 276 318 5,500 -800 Descending Potomac TRACON
Mon 08:04:02 PM 39.3833 -77.4000 189° South 269 310 4,700 -750 Descending Potomac TRACON
Mon 08:05:02 PM 39.3167 -77.4167 191° South 248 285 4,000 -350 Descending Potomac TRACON
Mon 08:06:02 PM 39.2667 -77.4333 194° South 201 231 4,000  Level Potomac TRACON
Mon 08:06:56 PM 39.2000 -77.4333 180° South 210 242 4,000  Level Potomac TRACON
Mon 08:07:56 PM 39.1500 -77.4333 180° South 209 241 4,000 -300 Level Potomac TRACON
Mon 08:08:56 PM 39.0833 -77.4333 180° South 210 242 3,400 -939 Descending Potomac TRACON
Mon 08:09:51 PM 39.0333 -77.4333 180° South 195 224 2,200 -1,096 Descending Potomac TRACON
Mon 08:10:51 PM 39.0000 -77.4333 180° South 143 165 1,300 -800 Descending Potomac TRACON
Mon 08:11:51 PM 38.9667 -77.4333 180° South 102 117 600 -700 Descending Potomac TRACON

Login

Don't have an account? Register now (free) for customized features, flight alerts, and more!